NameSizeLast modified
Parent directory/⇩ 213 MB(.zip of contents)
101 - Dj Stuff Terror - 10 Dollar For A Blowjob.mp3⇩ 7 MB2017-03-29 09:16:32
102 - SPaCeyALieN - Tripping Mind Rape.mp3⇩ 6 MB2017-03-29 09:16:33
103 - Rekom - Terror Drokerz.mp3⇩ 6 MB2017-03-29 09:16:34
104 - SPaCeyALieN And Mc Terror Erik - Negentienzesentachtug.mp3⇩ 4 MB2017-03-29 09:16:34
105 - Neuroxid - Weapons Teknologik.mp3⇩ 5 MB2017-03-29 09:16:34
106 - The Terror Enlarger - Dial Breaker R I P Liza (RMX).mp3⇩ 5 MB2017-03-29 09:16:35
107 - SPaCeyALieN And Mc Silvie - Fuck Jouw.mp3⇩ 5 MB2017-03-29 09:16:35
108 - Dj Stuff Terror Stick Ya Dick In Fucking Concrete RMX (original By POS).mp3⇩ 2 MB2017-03-29 09:16:36
109 - Rekom And Akumetsu - No Kick No Terror.mp3⇩ 5 MB2017-03-29 09:16:36
110 - SPaceyALieN - Wanna Break Yah Neck.mp3⇩ 4 MB2017-03-29 09:16:37
111 - Neuroxid - Fuck the matrice.mp3⇩ 3 MB2017-03-29 09:16:37
112 - SPaCeyALieN - Bierrrr Kut.mp3⇩ 3 MB2017-03-29 09:16:37
113 - Dj Stuff Terror - Gory Rap RMX (Stuff The Pussy).mp3⇩ 5 MB2017-03-29 09:16:38
114 - SoliXxX And SPaCeyALieN - Breaking Delivery.mp3⇩ 8 MB2017-03-29 09:16:38
115 - SoliXxX And SPaceyALieN - Dont Cry Die Be High.mp3⇩ 7 MB2017-03-29 09:16:39
116 - SoliXxX And SPaCeyALieN - Explosive Killer Minds.mp3⇩ 6 MB2017-03-29 09:16:40
201- Speedcore Modellista And Narcotic Skullfuck - The Beginning Of The BrotherHood.mp3⇩ 3 MB2017-03-29 09:16:40
202 - The Noisy Terrorist - Necroblasphemy.mp3⇩ 5 MB2017-03-29 09:16:40
203 - SPaCeyALieN - Playing A Game.mp3⇩ 4 MB2017-03-29 09:16:41
204 - Speedcore Modellista And Narcotic Skullfuck - Hipnotizing Terrorvison 900 Bpm Rmx.mp3⇩ 6 MB2017-03-29 09:16:41
205 - The Terror Enlarger - Extreme Swiss Terror.mp3⇩ 6 MB2017-03-29 09:16:42
206 - The Noisy Terrorist - Rose Mary Manson.mp3⇩ 3 MB2017-03-29 09:16:42
207 - SPaCeyALieN And Mc Terror Erik - Koekkie Wausz.mp3⇩ 4 MB2017-03-29 09:16:42
208 - Speedcore Modellista And Narcotic Skullfuck - Bpm Terreurizm.mp3⇩ 4 MB2017-03-29 09:16:43
209 - The Terror Enlarger - From Terror-Mouse to Speedcore-Troll.mp3⇩ 6 MB2017-03-29 09:16:44
210 - The Noisy Terrorist - Noise from the Darkness.mp3⇩ 6 MB2017-03-29 09:16:44
211 - The Terror Enlarger - Opening A New World With Kicking Some Asses.mp3⇩ 7 MB2017-03-29 09:16:45
212 - SPaCeyALieN - Sl.echte Taal.mp3⇩ 3 MB2017-03-29 09:16:45
213 - The Terror Enlarger - The Spongebob Speedcore Song.mp3⇩ 7 MB2017-03-29 09:16:45
214 - SPaceyALieN - A Evil Demon Kissed My Ass.mp3⇩ 4 MB2017-03-29 09:16:46
215 - The Noisy Terrorist - Carmina Burana.mp3⇩ 3 MB2017-03-29 09:16:46
216 - SPaCeyALieN - Speedcore From Rotterdam(RMX2009).mp3⇩ 4 MB2017-03-29 09:16:46
301 - Dark Industry - Live Production (RSKP012).mp3⇩ 14 MB2017-03-29 09:16:48
302 - SPaCeyALieN - Live Production (RSKP012).mp3⇩ 22 MB2017-03-29 09:16:50
303 - Music Video Clip SPaCeyALieN And McTerror Erik Spinne In Me Kut.wmv⇩ 6 MB2017-03-29 09:16:50
304 - Music Video Clip SPaceyALieN Wanna Break Yah Neck.wmv⇩ 5 MB2017-03-29 09:16:51
305 - Music Video Clip SPaCeyALieN - Allus Naar Duh Fack RMX.wmv⇩ 5 MB2017-03-29 09:16:51
RSKP012 Back Cover CD1.jpg⇩ 360 KB2017-03-29 09:16:51
RSKP012 Back cover cd2.jpg⇩ 442 KB2017-03-29 09:16:51
RSKP012 Cover Playlist CD3 .jpg⇩ 360 KB2017-03-29 09:16:51
RSKP012 Front Cover.jpg⇩ 454 KB2017-03-29 09:16:51
RSKP012.txt⇩ 7 KB2017-03-29 09:16:51